createdAt,value
2023-05-08T00:00:59.182Z,58.90
2023-05-08T00:03:27.689Z,59.50
2023-05-08T00:05:57.273Z,59.00
2023-05-08T00:08:25.525Z,59.00
2023-05-08T00:10:53.553Z,58.90
2023-05-08T00:13:21.661Z,58.90
2023-05-08T00:15:49.814Z,58.80
2023-05-08T00:18:18.020Z,58.80
2023-05-08T00:20:46.049Z,58.80
2023-05-08T00:23:15.487Z,58.80
2023-05-08T00:25:43.535Z,58.80
2023-05-08T00:28:11.584Z,58.80
2023-05-08T00:30:39.634Z,58.80
2023-05-08T00:33:07.753Z,58.80
2023-05-08T00:35:35.859Z,58.80
2023-05-08T00:38:03.935Z,58.90
2023-05-08T00:40:33.433Z,58.90
2023-05-08T00:43:01.519Z,59.00
2023-05-08T00:45:35.882Z,58.90
2023-05-08T00:48:04.943Z,59.10
2023-05-08T00:50:33.760Z,59.10
2023-05-08T00:53:04.105Z,59.00
2023-05-08T00:55:34.352Z,59.10
2023-05-08T00:58:02.808Z,59.20
2023-05-08T01:00:31.955Z,59.20
2023-05-08T01:03:01.852Z,59.30
2023-05-08T01:05:30.390Z,59.30
2023-05-08T01:07:58.415Z,59.40
2023-05-08T01:10:32.832Z,59.30
2023-05-08T01:13:19.898Z,59.50
2023-05-08T01:15:52.868Z,59.60
2023-05-08T01:18:27.837Z,59.50
2023-05-08T01:21:04.648Z,59.50
2023-05-08T01:24:04.453Z,59.50
2023-05-08T01:26:55.601Z,59.60
2023-05-08T01:30:07.736Z,59.70
2023-05-08T01:32:40.250Z,59.70
2023-05-08T01:35:19.030Z,59.70
2023-05-08T01:37:52.808Z,59.70
2023-05-08T01:40:29.620Z,59.90
2023-05-08T01:43:09.056Z,60.00
2023-05-08T01:45:41.500Z,60.20
2023-05-08T01:48:14.398Z,60.20
2023-05-08T01:50:47.146Z,60.20
2023-05-08T01:53:22.427Z,60.20
2023-05-08T01:55:54.560Z,60.40
2023-05-08T01:58:24.745Z,60.40
2023-05-08T02:00:54.720Z,60.40
2023-05-08T02:03:26.224Z,60.50
2023-05-08T02:05:56.803Z,60.60
2023-05-08T02:08:26.838Z,60.50
2023-05-08T02:10:55.981Z,60.50
2023-05-08T02:13:24.430Z,60.50
2023-05-08T02:15:55.504Z,60.40
2023-05-08T02:18:25.922Z,60.50
2023-05-08T02:20:56.388Z,60.60
2023-05-08T02:23:27.055Z,60.70
2023-05-08T02:25:56.214Z,60.80
2023-05-08T02:28:25.701Z,60.80
2023-05-08T02:30:54.454Z,60.80
2023-05-08T02:33:25.192Z,60.80
2023-05-08T02:35:53.923Z,60.80
2023-05-08T02:38:24.655Z,60.80
2023-05-08T02:40:57.545Z,60.70
2023-05-08T02:43:25.815Z,60.70
2023-05-08T02:46:05.000Z,60.50
2023-05-08T02:48:39.283Z,60.70
2023-05-08T02:51:19.370Z,60.60
2023-05-08T02:53:53.205Z,60.60
2023-05-08T02:56:38.575Z,60.60
2023-05-08T02:59:20.139Z,60.80
2023-05-08T03:01:52.027Z,60.90
2023-05-08T03:04:28.155Z,60.80
2023-05-08T03:06:58.776Z,60.90
2023-05-08T03:09:33.255Z,60.90
2023-05-08T03:12:07.539Z,61.00
2023-05-08T03:14:42.539Z,61.10
2023-05-08T03:17:15.084Z,61.50
2023-05-08T03:19:48.569Z,61.30
2023-05-08T03:22:17.673Z,61.30
2023-05-08T03:24:47.072Z,61.20
2023-05-08T03:27:17.102Z,61.20
2023-05-08T03:29:46.805Z,61.30
2023-05-08T03:32:15.934Z,61.40
2023-05-08T03:34:45.974Z,61.60
2023-05-08T03:37:14.129Z,61.70
2023-05-08T03:39:42.731Z,61.50
2023-05-08T03:42:21.061Z,61.70
2023-05-08T03:44:51.249Z,61.90
2023-05-08T03:47:20.575Z,62.10
2023-05-08T03:49:51.297Z,62.40
2023-05-08T03:52:19.363Z,62.60
2023-05-08T03:54:47.454Z,62.60
2023-05-08T03:57:15.590Z,62.80
2023-05-08T03:59:49.696Z,62.70
2023-05-08T04:02:25.663Z,63.10
2023-05-08T04:05:03.008Z,63.10
2023-05-08T04:07:37.252Z,63.30
2023-05-08T04:10:10.688Z,63.50
2023-05-08T04:12:46.333Z,63.80
2023-05-08T04:15:19.630Z,63.90
2023-05-08T04:17:54.348Z,63.90
2023-05-08T04:20:27.893Z,64.00
2023-05-08T04:22:56.845Z,64.10
2023-05-08T04:25:25.961Z,64.00
2023-05-08T04:27:56.063Z,64.00
2023-05-08T04:30:24.482Z,64.20
2023-05-08T04:32:53.636Z,64.20
2023-05-08T04:35:23.215Z,64.30
2023-05-08T04:37:51.276Z,64.30
2023-05-08T04:40:19.351Z,64.50
2023-05-08T04:42:47.862Z,64.50
2023-05-08T04:45:16.509Z,64.80
2023-05-08T04:47:44.629Z,64.90
2023-05-08T04:50:13.180Z,65.30
2023-05-08T04:52:42.811Z,65.30
2023-05-08T04:55:11.608Z,65.50
2023-05-08T04:57:39.986Z,65.60
2023-05-08T05:00:09.236Z,65.50
2023-05-08T05:02:37.299Z,65.60
2023-05-08T05:05:05.837Z,65.80
2023-05-08T05:07:33.868Z,65.80
2023-05-08T05:10:04.278Z,65.50
2023-05-08T05:12:32.330Z,65.60
2023-05-08T05:15:00.354Z,65.90
2023-05-08T05:17:28.501Z,65.90
2023-05-08T05:19:57.354Z,65.80
2023-05-08T05:22:25.390Z,65.70
2023-05-08T05:24:53.446Z,65.60
2023-05-08T05:27:22.868Z,65.60
2023-05-08T05:29:50.936Z,65.80
2023-05-08T05:32:19.028Z,65.70
2023-05-08T05:34:47.123Z,65.70
2023-05-08T05:37:15.202Z,65.80
2023-05-08T05:39:43.234Z,66.10
2023-05-08T05:42:11.596Z,66.40
2023-05-08T05:44:40.990Z,66.20
2023-05-08T05:47:10.236Z,66.10
2023-05-08T05:49:39.634Z,66.20
2023-05-08T05:52:07.743Z,66.10
2023-05-08T05:54:35.901Z,66.00
2023-05-08T05:57:03.940Z,66.00
2023-05-08T05:59:32.167Z,66.00
2023-05-08T06:02:01.661Z,66.20
2023-05-08T06:04:29.806Z,66.20
2023-05-08T06:06:58.078Z,66.20
2023-05-08T06:09:26.218Z,66.40
2023-05-08T06:11:54.276Z,66.50
2023-05-08T06:14:22.330Z,66.70
2023-05-08T06:16:50.465Z,67.00
2023-05-08T06:19:19.932Z,67.30
2023-05-08T06:21:47.940Z,67.40
2023-05-08T06:24:16.100Z,67.20
2023-05-08T06:26:44.181Z,67.20
2023-05-08T06:29:12.239Z,67.40
2023-05-08T06:31:40.284Z,67.10
2023-05-08T06:34:09.143Z,66.90
2023-05-08T06:36:38.594Z,67.00
2023-05-08T06:39:07.403Z,67.00
2023-05-08T06:41:35.469Z,66.90
2023-05-08T06:44:03.737Z,67.10
2023-05-08T06:46:31.809Z,67.50
2023-05-08T06:48:59.838Z,67.40
2023-05-08T06:51:27.885Z,67.60
2023-05-08T06:53:57.312Z,67.50
2023-05-08T06:56:26.519Z,67.80
2023-05-08T06:59:07.090Z,67.70
2023-05-08T07:01:37.485Z,67.90
2023-05-08T07:04:06.066Z,67.70
2023-05-08T07:06:34.318Z,67.90
2023-05-08T07:09:03.852Z,68.00
2023-05-08T07:11:31.908Z,68.40
2023-05-08T07:14:00.168Z,68.30
2023-05-08T07:16:28.298Z,68.50
2023-05-08T07:18:56.373Z,68.90
2023-05-08T07:21:25.073Z,68.90
2023-05-08T07:23:53.851Z,69.10
2023-05-08T07:26:23.556Z,69.30
2023-05-08T07:28:54.175Z,69.80
2023-05-08T07:31:22.994Z,70.00
2023-05-08T07:33:51.304Z,70.20
2023-05-08T07:36:19.342Z,70.20
2023-05-08T07:38:47.424Z,70.50
2023-05-08T07:41:15.514Z,70.70
2023-05-08T07:43:45.253Z,71.00
2023-05-08T07:46:18.571Z,71.10
2023-05-08T07:48:46.664Z,70.90
2023-05-08T07:51:14.969Z,70.60
2023-05-08T07:53:43.026Z,70.70
2023-05-08T07:56:11.104Z,70.70
2023-05-08T07:58:39.155Z,71.00
2023-05-08T08:01:08.589Z,70.90
2023-05-08T08:03:36.785Z,71.00
2023-05-08T08:06:05.168Z,70.80
2023-05-08T08:08:33.210Z,70.90
2023-05-08T08:11:03.067Z,70.90
2023-05-08T08:13:32.713Z,70.90
2023-05-08T08:16:00.918Z,70.80
2023-05-08T08:18:30.725Z,71.00
2023-05-08T08:20:58.765Z,71.10
2023-05-08T08:23:27.347Z,71.10
2023-05-08T08:25:55.381Z,70.90
2023-05-08T08:28:23.425Z,71.20
2023-05-08T08:30:51.554Z,71.20
2023-05-08T08:33:19.603Z,71.30
2023-05-08T08:35:49.037Z,71.40
2023-05-08T08:38:17.622Z,71.10
2023-05-08T08:40:45.664Z,70.80
2023-05-08T08:43:13.925Z,70.60
2023-05-08T08:45:41.945Z,70.60
2023-05-08T08:48:12.752Z,70.60
2023-05-08T08:50:44.874Z,70.60
2023-05-08T08:53:22.488Z,70.50
2023-05-08T08:55:55.517Z,70.50
2023-05-08T08:58:32.404Z,70.50
2023-05-08T09:01:04.006Z,70.50
2023-05-08T09:03:32.243Z,70.30
2023-05-08T09:06:01.535Z,70.00
2023-05-08T09:08:31.196Z,70.10
2023-05-08T09:10:59.438Z,70.40
2023-05-08T09:13:27.614Z,70.00
2023-05-08T09:15:55.864Z,69.70
2023-05-08T09:18:23.996Z,68.90
2023-05-08T09:20:52.440Z,68.00
2023-05-08T09:23:20.516Z,68.00
2023-05-08T09:25:50.560Z,67.90
2023-05-08T09:28:19.788Z,68.20
2023-05-08T09:30:52.578Z,67.80
2023-05-08T09:33:21.250Z,67.30
2023-05-08T09:35:49.935Z,67.20
2023-05-08T09:38:34.500Z,66.70
2023-05-08T09:41:11.351Z,66.90
2023-05-08T09:43:40.003Z,66.90
2023-05-08T09:46:24.668Z,66.70
2023-05-08T09:48:54.076Z,67.00
2023-05-08T09:51:22.870Z,67.60
2023-05-08T09:53:53.086Z,66.70
2023-05-08T09:56:35.499Z,66.10
2023-05-08T09:59:06.304Z,66.10
2023-05-08T10:01:36.004Z,66.90
2023-05-08T10:04:05.851Z,67.20
2023-05-08T10:06:34.580Z,66.20
2023-05-08T10:09:12.983Z,65.40
2023-05-08T10:11:51.943Z,64.80
2023-05-08T10:14:20.882Z,64.60
2023-05-08T10:16:51.731Z,64.30
2023-05-08T10:19:21.398Z,65.20
2023-05-08T10:21:50.972Z,64.50
2023-05-08T10:24:20.698Z,64.20
2023-05-08T10:27:07.555Z,63.90
2023-05-08T10:29:43.957Z,64.30
2023-05-08T10:32:14.315Z,64.70
2023-05-08T10:34:43.690Z,65.00
2023-05-08T10:37:11.841Z,64.70
2023-05-08T10:39:41.251Z,64.70
2023-05-08T10:42:10.728Z,65.00
2023-05-08T10:44:39.724Z,65.30
2023-05-08T10:47:17.381Z,65.00
2023-05-08T10:49:52.680Z,65.20
2023-05-08T10:52:29.216Z,65.40
2023-05-08T10:55:17.536Z,65.70
2023-05-08T10:58:06.407Z,65.00
2023-05-08T11:01:06.218Z,65.60
2023-05-08T11:03:43.404Z,65.80
2023-05-08T11:06:11.710Z,65.90
2023-05-08T11:08:51.634Z,65.60
2023-05-08T11:11:28.819Z,66.20
2023-05-08T11:14:10.510Z,66.20
2023-05-08T11:17:06.885Z,66.40
2023-05-08T11:19:35.487Z,66.90
2023-05-08T11:22:23.163Z,66.70
2023-05-08T11:24:59.484Z,67.10
2023-05-08T11:27:38.641Z,67.60
2023-05-08T11:30:26.859Z,68.10
2023-05-08T11:33:16.956Z,68.70
2023-05-08T11:35:50.598Z,68.50
2023-05-08T11:38:26.115Z,68.40
2023-05-08T11:41:01.988Z,68.40
2023-05-08T11:44:01.036Z,68.90
2023-05-08T11:46:39.534Z,68.40
2023-05-08T11:49:11.424Z,68.00
2023-05-08T11:51:39.523Z,67.80
2023-05-08T11:54:07.656Z,67.60
2023-05-08T11:56:35.833Z,67.80
2023-05-08T11:59:05.431Z,67.20
2023-05-08T12:01:34.876Z,67.30
2023-05-08T12:04:04.945Z,68.20
2023-05-08T12:06:33.777Z,68.00
2023-05-08T12:09:02.280Z,67.50
2023-05-08T12:11:30.332Z,67.50
2023-05-08T12:13:58.406Z,67.30
2023-05-08T12:16:26.486Z,67.10
2023-05-08T12:18:58.216Z,66.80
2023-05-08T12:21:27.598Z,66.60
2023-05-08T12:23:56.210Z,67.70
2023-05-08T12:26:24.332Z,66.90
2023-05-08T12:28:56.650Z,66.90
2023-05-08T12:31:25.211Z,66.60
2023-05-08T12:33:55.417Z,66.50
2023-05-08T12:36:23.480Z,66.90
2023-05-08T12:38:52.423Z,66.70
2023-05-08T12:41:25.106Z,66.90
2023-05-08T12:43:53.144Z,66.90
2023-05-08T12:46:22.287Z,66.60
2023-05-08T12:48:50.401Z,66.70
2023-05-08T12:51:19.792Z,66.80
2023-05-08T12:53:47.818Z,66.70
2023-05-08T12:56:22.978Z,66.30
2023-05-08T12:58:51.027Z,66.10
2023-05-08T13:01:19.094Z,66.10
2023-05-08T13:04:01.614Z,66.60
2023-05-08T13:06:32.748Z,66.10
2023-05-08T13:09:00.799Z,65.80
2023-05-08T13:11:33.375Z,65.60
2023-05-08T13:14:01.559Z,65.60
2023-05-08T13:16:29.619Z,65.60
2023-05-08T13:18:57.717Z,66.00
2023-05-08T13:21:27.653Z,65.50
2023-05-08T13:23:57.727Z,65.00
2023-05-08T13:26:26.285Z,64.40
2023-05-08T13:28:56.420Z,65.00
2023-05-08T13:31:24.986Z,65.40
2023-05-08T13:33:53.086Z,64.80
2023-05-08T13:36:21.477Z,65.40
2023-05-08T13:38:51.275Z,64.80
2023-05-08T13:41:20.852Z,64.70
2023-05-08T13:43:49.178Z,64.40
2023-05-08T13:46:17.357Z,64.50
2023-05-08T13:48:45.437Z,64.50
2023-05-08T13:51:13.471Z,63.60
2023-05-08T13:53:41.488Z,63.50
2023-05-08T13:56:09.611Z,63.30
2023-05-08T13:58:40.253Z,63.20
2023-05-08T14:01:24.949Z,63.30
2023-05-08T14:03:55.003Z,63.70
2023-05-08T14:06:23.411Z,63.30
2023-05-08T14:08:54.236Z,63.20
2023-05-08T14:11:23.684Z,63.10
2023-05-08T14:13:53.159Z,63.70
2023-05-08T14:16:21.314Z,63.90
2023-05-08T14:18:49.423Z,63.50
2023-05-08T14:21:17.456Z,63.40
2023-05-08T14:23:45.516Z,63.40
2023-05-08T14:26:13.591Z,62.90
2023-05-08T14:28:41.692Z,62.90
2023-05-08T14:31:11.165Z,62.90
2023-05-08T14:33:39.606Z,62.80
2023-05-08T14:36:08.371Z,63.30
2023-05-08T14:38:36.426Z,62.50
2023-05-08T14:41:05.022Z,62.60
2023-05-08T14:43:33.356Z,62.80
2023-05-08T14:46:01.459Z,62.40
2023-05-08T14:48:30.970Z,62.20
2023-05-08T14:50:59.084Z,61.90
2023-05-08T14:53:27.362Z,61.90
2023-05-08T14:55:55.848Z,61.60
2023-05-08T14:58:23.980Z,61.40
2023-05-08T15:00:52.156Z,61.20
2023-05-08T15:03:20.460Z,61.50
2023-05-08T15:05:49.968Z,61.10
2023-05-08T15:08:18.064Z,60.70
2023-05-08T15:10:46.080Z,60.70
2023-05-08T15:13:14.200Z,60.70
2023-05-08T15:15:42.321Z,61.00
2023-05-08T15:18:10.996Z,61.00
2023-05-08T15:20:39.210Z,60.90
2023-05-08T15:23:08.681Z,60.80
2023-05-08T15:25:36.744Z,60.80
2023-05-08T15:28:04.912Z,60.80
2023-05-08T15:30:32.978Z,61.00
2023-05-08T15:33:01.125Z,61.10
2023-05-08T15:35:29.492Z,61.10
2023-05-08T15:37:57.571Z,61.10
2023-05-08T15:40:26.973Z,61.30
2023-05-08T15:42:55.010Z,61.50
2023-05-08T15:45:23.317Z,61.60
2023-05-08T15:47:51.820Z,61.60
2023-05-08T15:50:19.913Z,61.80
2023-05-08T15:52:47.952Z,62.00
2023-05-08T15:55:17.603Z,61.60
2023-05-08T15:57:47.204Z,61.50
2023-05-08T16:00:16.192Z,61.20
2023-05-08T16:02:44.378Z,61.40
2023-05-08T16:05:12.671Z,61.40
2023-05-08T16:07:40.867Z,61.40
2023-05-08T16:10:10.507Z,61.90
2023-05-08T16:12:38.598Z,62.00
2023-05-08T16:15:08.945Z,61.60
2023-05-08T16:17:37.011Z,61.70
2023-05-08T16:20:05.647Z,61.80
2023-05-08T16:22:33.706Z,61.60
2023-05-08T16:25:01.752Z,62.00
2023-05-08T16:27:29.910Z,61.90
2023-05-08T16:29:57.956Z,61.30
2023-05-08T16:32:27.984Z,61.20
2023-05-08T16:34:56.079Z,61.30
2023-05-08T16:37:24.155Z,61.30
2023-05-08T16:39:52.202Z,61.60
2023-05-08T16:42:20.884Z,61.50
2023-05-08T16:44:48.966Z,61.30
2023-05-08T16:47:17.013Z,60.90
2023-05-08T16:49:46.422Z,61.00
2023-05-08T16:52:14.504Z,61.00
2023-05-08T16:54:42.568Z,62.00
2023-05-08T16:57:10.821Z,60.90
2023-05-08T16:59:38.857Z,60.70
2023-05-08T17:02:06.926Z,60.90
2023-05-08T17:04:34.989Z,61.40
2023-05-08T17:07:05.733Z,60.80
2023-05-08T17:09:34.910Z,60.80
2023-05-08T17:12:03.124Z,60.80
2023-05-08T17:14:31.205Z,60.70
2023-05-08T17:16:59.280Z,60.60
2023-05-08T17:19:27.335Z,60.90
2023-05-08T17:21:56.850Z,60.90
2023-05-08T17:24:27.553Z,61.00
2023-05-08T17:26:55.673Z,60.80
2023-05-08T17:29:23.762Z,60.70
2023-05-08T17:31:51.882Z,60.70
2023-05-08T17:34:20.118Z,61.10
2023-05-08T17:36:48.193Z,61.10
2023-05-08T17:39:18.188Z,61.30
2023-05-08T17:41:47.624Z,61.30
2023-05-08T17:44:15.701Z,61.30
2023-05-08T17:46:43.899Z,60.90
2023-05-08T17:49:12.049Z,60.70
2023-05-08T17:51:41.152Z,61.30
2023-05-08T17:54:09.250Z,61.30
2023-05-08T17:56:37.320Z,61.40
2023-05-08T17:59:06.717Z,61.40
2023-05-08T18:01:34.842Z,61.30
2023-05-08T18:04:02.962Z,61.50
2023-05-08T18:06:31.008Z,61.40
2023-05-08T18:08:59.033Z,61.70
2023-05-08T18:11:27.873Z,61.60
2023-05-08T18:13:56.109Z,61.80
2023-05-08T18:16:25.634Z,61.90
2023-05-08T18:18:53.669Z,62.20
2023-05-08T18:21:21.707Z,62.20
2023-05-08T18:23:49.767Z,62.10
2023-05-08T18:26:18.406Z,62.40
2023-05-08T18:28:46.499Z,62.50
2023-05-08T18:31:16.233Z,62.80
2023-05-08T18:33:45.881Z,62.70
2023-05-08T18:36:14.006Z,63.00
2023-05-08T18:38:42.649Z,63.20
2023-05-08T18:41:10.692Z,63.20
2023-05-08T18:43:38.735Z,63.30
2023-05-08T18:46:12.248Z,63.30
2023-05-08T18:48:40.771Z,63.70
2023-05-08T18:51:10.555Z,63.80
2023-05-08T18:53:39.349Z,64.10
2023-05-08T18:56:07.713Z,65.00
2023-05-08T18:58:35.805Z,64.30
2023-05-08T19:01:03.909Z,64.30
2023-05-08T19:03:32.118Z,64.40
2023-05-08T19:06:00.236Z,64.40
2023-05-08T19:08:29.657Z,64.50
2023-05-08T19:10:57.786Z,64.90
2023-05-08T19:13:25.994Z,64.80
2023-05-08T19:15:54.617Z,65.10
2023-05-08T19:18:22.768Z,65.20
2023-05-08T19:20:50.848Z,65.40
2023-05-08T19:23:18.948Z,65.70
2023-05-08T19:25:48.450Z,66.10
2023-05-08T19:28:16.519Z,66.50
2023-05-08T19:30:44.579Z,66.40
2023-05-08T19:33:12.652Z,67.50
2023-05-08T19:35:40.716Z,66.80
2023-05-08T19:38:08.749Z,67.10
2023-05-08T19:40:48.074Z,67.30
2023-05-08T19:43:24.731Z,67.40
2023-05-08T19:45:52.964Z,67.40
2023-05-08T19:48:21.170Z,67.40
2023-05-08T19:50:49.237Z,67.50
2023-05-08T19:53:17.292Z,67.50
2023-05-08T19:55:45.413Z,67.50
2023-05-08T19:58:13.461Z,67.60
2023-05-08T20:00:42.891Z,67.70
2023-05-08T20:03:11.019Z,68.00
2023-05-08T20:05:39.166Z,68.10
2023-05-08T20:08:07.207Z,68.10
2023-05-08T20:10:35.245Z,68.30
2023-05-08T20:13:03.349Z,68.50
2023-05-08T20:15:31.421Z,68.60
2023-05-08T20:18:00.905Z,68.70
2023-05-08T20:20:29.706Z,68.90
2023-05-08T20:22:58.000Z,68.90
2023-05-08T20:25:26.145Z,68.90
2023-05-08T20:27:54.565Z,69.70
2023-05-08T20:30:23.833Z,68.90
2023-05-08T20:32:52.099Z,68.90
2023-05-08T20:35:21.729Z,68.90
2023-05-08T20:37:50.070Z,68.90
2023-05-08T20:40:18.142Z,69.00
2023-05-08T20:42:46.159Z,68.90
2023-05-08T20:45:14.206Z,68.90
2023-05-08T20:47:42.280Z,69.00
2023-05-08T20:50:11.202Z,69.00
2023-05-08T20:52:42.503Z,69.10
2023-05-08T20:55:11.303Z,69.10
2023-05-08T20:57:39.409Z,69.00
2023-05-08T21:00:08.982Z,69.00
2023-05-08T21:02:38.768Z,69.00
2023-05-08T21:05:08.024Z,69.00
2023-05-08T21:07:36.432Z,68.90
2023-05-08T21:10:06.709Z,69.00
2023-05-08T21:12:34.781Z,69.10
2023-05-08T21:15:03.004Z,69.20
2023-05-08T21:17:31.098Z,69.30
2023-05-08T21:19:59.146Z,69.30
2023-05-08T21:22:27.160Z,69.50
2023-05-08T21:24:55.222Z,69.50
2023-05-08T21:27:25.938Z,69.60
2023-05-08T21:29:54.173Z,69.70
2023-05-08T21:32:22.353Z,69.80
2023-05-08T21:34:50.438Z,70.00
2023-05-08T21:37:18.496Z,70.10
2023-05-08T21:39:46.511Z,70.20
2023-05-08T21:42:14.566Z,70.40
2023-05-08T21:44:44.239Z,70.50
2023-05-08T21:47:12.368Z,70.80
2023-05-08T21:49:40.393Z,70.80
2023-05-08T21:52:08.576Z,70.90
2023-05-08T21:54:36.621Z,71.20
2023-05-08T21:57:06.532Z,71.20
2023-05-08T21:59:34.655Z,71.40
2023-05-08T22:02:04.191Z,71.50
2023-05-08T22:04:32.370Z,71.60
2023-05-08T22:07:00.480Z,71.60
2023-05-08T22:09:28.528Z,71.60
2023-05-08T22:11:56.597Z,71.60
2023-05-08T22:14:24.657Z,71.70
2023-05-08T22:16:52.710Z,71.70
2023-05-08T22:19:22.129Z,71.80
2023-05-08T22:21:50.191Z,72.00
2023-05-08T22:24:19.096Z,71.80
2023-05-08T22:26:47.182Z,71.80
2023-05-08T22:29:16.534Z,71.90
2023-05-08T22:31:44.649Z,72.00
2023-05-08T22:34:12.812Z,72.00
2023-05-08T22:36:42.231Z,72.00
2023-05-08T22:39:11.657Z,72.10
2023-05-08T22:41:40.264Z,72.10
2023-05-08T22:44:08.427Z,72.10
2023-05-08T22:46:37.128Z,72.30
2023-05-08T22:49:06.025Z,72.40
2023-05-08T22:51:34.133Z,72.40
2023-05-08T22:54:03.559Z,72.50
2023-05-08T22:56:31.617Z,72.70
2023-05-08T22:58:59.695Z,72.70
2023-05-08T23:01:27.825Z,72.70
2023-05-08T23:03:56.581Z,72.70
2023-05-08T23:06:25.083Z,72.70
2023-05-08T23:08:53.117Z,72.80
2023-05-08T23:11:22.557Z,72.80
2023-05-08T23:13:50.571Z,72.90
2023-05-08T23:16:18.604Z,72.80
2023-05-08T23:18:46.662Z,73.00
2023-05-08T23:21:14.694Z,73.00
2023-05-08T23:23:42.836Z,73.10
2023-05-08T23:26:10.976Z,73.20
2023-05-08T23:28:40.452Z,71.70
2023-05-08T23:31:08.536Z,71.60
2023-05-08T23:33:36.650Z,71.80
2023-05-08T23:36:04.943Z,71.60
2023-05-08T23:38:33.029Z,71.20
2023-05-08T23:41:01.082Z,71.30
2023-05-08T23:43:29.230Z,70.90
2023-05-08T23:45:58.754Z,70.60
2023-05-08T23:48:27.224Z,70.30
2023-05-08T23:50:55.229Z,70.10
2023-05-08T23:53:23.285Z,70.00
2023-05-08T23:55:52.326Z,70.10
2023-05-08T23:58:20.869Z,70.30
